sensor_id;sensor_type;location;lat;lon;timestamp;P1;durP1;ratioP1;P2;durP2;ratioP2
71734;SDS011;59577;52.122;5.406;2022-08-03T00:01:31;3.05;;;0.73;;
71734;SDS011;59577;52.122;5.406;2022-08-03T00:03:58;2.00;;;0.45;;
71734;SDS011;59577;52.122;5.406;2022-08-03T00:06:25;3.40;;;0.40;;
71734;SDS011;59577;52.122;5.406;2022-08-03T00:08:51;5.20;;;0.75;;
71734;SDS011;59577;52.122;5.406;2022-08-03T00:11:18;5.43;;;1.20;;
71734;SDS011;59577;52.122;5.406;2022-08-03T00:13:45;7.03;;;0.70;;
71734;SDS011;59577;52.122;5.406;2022-08-03T00:16:12;4.13;;;0.60;;
71734;SDS011;59577;52.122;5.406;2022-08-03T00:18:38;3.72;;;0.80;;
71734;SDS011;59577;52.122;5.406;2022-08-03T00:21:05;4.50;;;0.60;;
71734;SDS011;59577;52.122;5.406;2022-08-03T00:23:32;3.20;;;0.47;;
71734;SDS011;59577;52.122;5.406;2022-08-03T00:26:18;5.40;;;0.40;;
71734;SDS011;59577;52.122;5.406;2022-08-03T00:28:46;2.88;;;0.40;;
71734;SDS011;59577;52.122;5.406;2022-08-03T00:31:13;5.75;;;0.60;;
71734;SDS011;59577;52.122;5.406;2022-08-03T00:33:39;3.25;;;0.85;;
71734;SDS011;59577;52.122;5.406;2022-08-03T00:36:26;5.23;;;0.77;;
71734;SDS011;59577;52.122;5.406;2022-08-03T00:38:53;2.47;;;0.60;;
71734;SDS011;59577;52.122;5.406;2022-08-03T00:41:20;4.93;;;0.80;;
71734;SDS011;59577;52.122;5.406;2022-08-03T00:43:47;4.00;;;1.10;;
71734;SDS011;59577;52.122;5.406;2022-08-03T00:46:13;3.53;;;0.60;;
71734;SDS011;59577;52.122;5.406;2022-08-03T00:48:47;2.77;;;0.43;;
71734;SDS011;59577;52.122;5.406;2022-08-03T00:51:17;3.92;;;0.40;;
71734;SDS011;59577;52.122;5.406;2022-08-03T00:53:45;1.85;;;0.40;;
71734;SDS011;59577;52.122;5.406;2022-08-03T00:56:13;4.53;;;0.57;;
71734;SDS011;59577;52.122;5.406;2022-08-03T00:58:40;2.75;;;0.40;;
71734;SDS011;59577;52.122;5.406;2022-08-03T01:01:08;1.60;;;0.30;;
71734;SDS011;59577;52.122;5.406;2022-08-03T01:03:35;3.70;;;1.20;;
71734;SDS011;59577;52.122;5.406;2022-08-03T01:06:18;2.08;;;0.80;;
71734;SDS011;59577;52.122;5.406;2022-08-03T01:09:02;6.35;;;0.70;;
71734;SDS011;59577;52.122;5.406;2022-08-03T01:11:43;7.03;;;0.68;;
71734;SDS011;59577;52.122;5.406;2022-08-03T01:14:29;2.13;;;0.30;;
71734;SDS011;59577;52.122;5.406;2022-08-03T01:17:09;3.75;;;0.88;;
71734;SDS011;59577;52.122;5.406;2022-08-03T01:19:44;3.55;;;0.40;;
71734;SDS011;59577;52.122;5.406;2022-08-03T01:22:36;3.15;;;0.70;;
71734;SDS011;59577;52.122;5.406;2022-08-03T01:25:30;3.40;;;0.43;;
71734;SDS011;59577;52.122;5.406;2022-08-03T01:30:47;3.92;;;0.47;;
71734;SDS011;59577;52.122;5.406;2022-08-03T01:33:16;7.40;;;0.88;;
71734;SDS011;59577;52.122;5.406;2022-08-03T01:35:47;8.00;;;0.85;;
71734;SDS011;59577;52.122;5.406;2022-08-03T01:38:20;2.78;;;0.60;;
71734;SDS011;59577;52.122;5.406;2022-08-03T01:40:51;5.67;;;1.10;;
71734;SDS011;59577;52.122;5.406;2022-08-03T01:43:20;5.55;;;0.60;;
71734;SDS011;59577;52.122;5.406;2022-08-03T01:46:13;4.40;;;0.95;;
71734;SDS011;59577;52.122;5.406;2022-08-03T01:48:41;6.72;;;0.70;;
71734;SDS011;59577;52.122;5.406;2022-08-03T01:51:09;2.53;;;0.63;;
71734;SDS011;59577;52.122;5.406;2022-08-03T01:53:37;4.30;;;0.70;;
71734;SDS011;59577;52.122;5.406;2022-08-03T01:56:08;3.55;;;0.73;;
71734;SDS011;59577;52.122;5.406;2022-08-03T01:58:35;2.03;;;0.57;;
71734;SDS011;59577;52.122;5.406;2022-08-03T02:01:04;3.65;;;0.60;;
71734;SDS011;59577;52.122;5.406;2022-08-03T02:03:32;4.50;;;0.73;;
71734;SDS011;59577;52.122;5.406;2022-08-03T02:06:02;4.30;;;0.93;;
71734;SDS011;59577;52.122;5.406;2022-08-03T02:08:50;4.95;;;0.85;;
71734;SDS011;59577;52.122;5.406;2022-08-03T02:11:19;3.90;;;1.10;;
71734;SDS011;59577;52.122;5.406;2022-08-03T02:13:46;5.05;;;0.88;;
71734;SDS011;59577;52.122;5.406;2022-08-03T02:16:15;5.63;;;1.15;;
71734;SDS011;59577;52.122;5.406;2022-08-03T02:18:44;2.67;;;1.20;;
71734;SDS011;59577;52.122;5.406;2022-08-03T02:21:13;6.30;;;1.10;;
71734;SDS011;59577;52.122;5.406;2022-08-03T02:24:00;10.57;;;1.30;;
71734;SDS011;59577;52.122;5.406;2022-08-03T02:26:28;4.30;;;0.88;;
71734;SDS011;59577;52.122;5.406;2022-08-03T02:28:56;4.95;;;0.85;;
71734;SDS011;59577;52.122;5.406;2022-08-03T02:31:27;3.47;;;1.20;;
71734;SDS011;59577;52.122;5.406;2022-08-03T02:33:57;6.22;;;1.10;;
71734;SDS011;59577;52.122;5.406;2022-08-03T02:36:28;5.72;;;1.20;;
71734;SDS011;59577;52.122;5.406;2022-08-03T02:38:58;2.85;;;0.75;;
71734;SDS011;59577;52.122;5.406;2022-08-03T02:41:34;6.47;;;1.23;;
71734;SDS011;59577;52.122;5.406;2022-08-03T02:44:07;5.30;;;1.27;;
71734;SDS011;59577;52.122;5.406;2022-08-03T02:46:40;3.90;;;1.17;;
71734;SDS011;59577;52.122;5.406;2022-08-03T02:49:11;3.50;;;0.90;;
71734;SDS011;59577;52.122;5.406;2022-08-03T02:51:59;6.30;;;1.38;;
71734;SDS011;59577;52.122;5.406;2022-08-03T02:54:27;5.40;;;1.30;;
71734;SDS011;59577;52.122;5.406;2022-08-03T02:56:55;12.50;;;1.10;;
71734;SDS011;59577;52.122;5.406;2022-08-03T02:59:23;6.30;;;1.15;;
71734;SDS011;59577;52.122;5.406;2022-08-03T03:01:51;4.65;;;0.98;;
71734;SDS011;59577;52.122;5.406;2022-08-03T03:04:20;5.68;;;0.90;;
71734;SDS011;59577;52.122;5.406;2022-08-03T03:06:52;7.78;;;1.27;;
71734;SDS011;59577;52.122;5.406;2022-08-03T03:09:20;3.03;;;0.97;;
71734;SDS011;59577;52.122;5.406;2022-08-03T03:11:47;5.15;;;1.08;;
71734;SDS011;59577;52.122;5.406;2022-08-03T03:14:16;5.78;;;1.38;;
71734;SDS011;59577;52.122;5.406;2022-08-03T03:16:59;4.30;;;1.02;;
71734;SDS011;59577;52.122;5.406;2022-08-03T03:19:27;7.85;;;1.80;;
71734;SDS011;59577;52.122;5.406;2022-08-03T03:21:57;5.47;;;1.00;;
71734;SDS011;59577;52.122;5.406;2022-08-03T03:24:27;4.75;;;1.25;;
71734;SDS011;59577;52.122;5.406;2022-08-03T03:26:55;5.45;;;1.80;;
71734;SDS011;59577;52.122;5.406;2022-08-03T03:29:23;6.00;;;1.40;;
71734;SDS011;59577;52.122;5.406;2022-08-03T03:31:50;6.82;;;1.42;;
71734;SDS011;59577;52.122;5.406;2022-08-03T03:34:17;3.80;;;1.27;;
71734;SDS011;59577;52.122;5.406;2022-08-03T03:36:44;3.05;;;1.27;;
71734;SDS011;59577;52.122;5.406;2022-08-03T03:39:11;5.20;;;1.27;;
71734;SDS011;59577;52.122;5.406;2022-08-03T03:41:41;8.30;;;1.70;;
71734;SDS011;59577;52.122;5.406;2022-08-03T03:44:08;6.32;;;1.67;;
71734;SDS011;59577;52.122;5.406;2022-08-03T03:46:35;7.40;;;1.30;;
71734;SDS011;59577;52.122;5.406;2022-08-03T03:49:04;7.43;;;1.40;;
71734;SDS011;59577;52.122;5.406;2022-08-03T03:51:32;6.57;;;1.05;;
71734;SDS011;59577;52.122;5.406;2022-08-03T03:53:59;5.57;;;1.30;;
71734;SDS011;59577;52.122;5.406;2022-08-03T03:56:28;8.23;;;1.52;;
71734;SDS011;59577;52.122;5.406;2022-08-03T03:58:54;5.10;;;1.43;;
71734;SDS011;59577;52.122;5.406;2022-08-03T04:01:23;8.43;;;1.65;;
71734;SDS011;59577;52.122;5.406;2022-08-03T04:03:50;3.92;;;1.25;;
71734;SDS011;59577;52.122;5.406;2022-08-03T04:06:17;3.80;;;1.15;;
71734;SDS011;59577;52.122;5.406;2022-08-03T04:09:02;6.68;;;1.48;;
71734;SDS011;59577;52.122;5.406;2022-08-03T04:11:49;9.50;;;1.53;;
71734;SDS011;59577;52.122;5.406;2022-08-03T04:14:32;6.38;;;1.42;;
71734;SDS011;59577;52.122;5.406;2022-08-03T04:17:02;7.50;;;1.40;;
71734;SDS011;59577;52.122;5.406;2022-08-03T04:19:36;3.92;;;1.05;;
71734;SDS011;59577;52.122;5.406;2022-08-03T04:22:11;5.00;;;1.17;;
71734;SDS011;59577;52.122;5.406;2022-08-03T04:24:43;6.40;;;1.70;;
71734;SDS011;59577;52.122;5.406;2022-08-03T04:27:14;5.47;;;1.58;;
71734;SDS011;59577;52.122;5.406;2022-08-03T04:29:52;9.85;;;1.95;;
71734;SDS011;59577;52.122;5.406;2022-08-03T04:32:22;9.75;;;2.40;;
71734;SDS011;59577;52.122;5.406;2022-08-03T04:34:53;8.20;;;1.77;;
71734;SDS011;59577;52.122;5.406;2022-08-03T04:37:42;4.17;;;0.90;;
71734;SDS011;59577;52.122;5.406;2022-08-03T04:40:09;7.55;;;1.73;;
71734;SDS011;59577;52.122;5.406;2022-08-03T04:42:41;5.90;;;1.80;;
71734;SDS011;59577;52.122;5.406;2022-08-03T04:45:12;11.45;;;1.40;;
71734;SDS011;59577;52.122;5.406;2022-08-03T04:47:40;7.32;;;1.67;;
71734;SDS011;59577;52.122;5.406;2022-08-03T04:50:07;5.43;;;1.83;;
71734;SDS011;59577;52.122;5.406;2022-08-03T04:52:38;7.30;;;1.77;;
71734;SDS011;59577;52.122;5.406;2022-08-03T04:55:05;5.00;;;1.80;;
71734;SDS011;59577;52.122;5.406;2022-08-03T04:57:32;9.43;;;1.52;;
71734;SDS011;59577;52.122;5.406;2022-08-03T04:59:58;9.88;;;1.75;;
71734;SDS011;59577;52.122;5.406;2022-08-03T05:02:29;9.83;;;1.60;;
71734;SDS011;59577;52.122;5.406;2022-08-03T05:04:57;7.25;;;1.92;;
71734;SDS011;59577;52.122;5.406;2022-08-03T05:07:24;6.55;;;2.20;;
71734;SDS011;59577;52.122;5.406;2022-08-03T05:09:50;6.75;;;1.50;;
71734;SDS011;59577;52.122;5.406;2022-08-03T05:12:28;6.32;;;1.50;;
71734;SDS011;59577;52.122;5.406;2022-08-03T05:14:58;4.50;;;1.53;;
71734;SDS011;59577;52.122;5.406;2022-08-03T05:17:25;8.30;;;1.63;;
71734;SDS011;59577;52.122;5.406;2022-08-03T05:19:51;9.15;;;1.63;;
71734;SDS011;59577;52.122;5.406;2022-08-03T05:22:18;7.22;;;1.70;;
71734;SDS011;59577;52.122;5.406;2022-08-03T05:24:45;5.68;;;1.23;;
71734;SDS011;59577;52.122;5.406;2022-08-03T05:27:11;9.20;;;1.90;;
71734;SDS011;59577;52.122;5.406;2022-08-03T05:29:48;5.82;;;1.35;;
71734;SDS011;59577;52.122;5.406;2022-08-03T05:32:15;8.82;;;1.60;;
71734;SDS011;59577;52.122;5.406;2022-08-03T05:34:43;7.90;;;2.03;;
71734;SDS011;59577;52.122;5.406;2022-08-03T05:37:10;9.73;;;1.73;;
71734;SDS011;59577;52.122;5.406;2022-08-03T05:39:36;7.73;;;1.80;;
71734;SDS011;59577;52.122;5.406;2022-08-03T05:42:03;7.63;;;1.58;;
71734;SDS011;59577;52.122;5.406;2022-08-03T05:44:30;6.22;;;1.52;;
71734;SDS011;59577;52.122;5.406;2022-08-03T05:46:57;10.43;;;1.70;;
71734;SDS011;59577;52.122;5.406;2022-08-03T05:49:24;7.90;;;1.38;;
71734;SDS011;59577;52.122;5.406;2022-08-03T05:51:50;7.50;;;1.47;;
71734;SDS011;59577;52.122;5.406;2022-08-03T05:54:36;9.20;;;1.67;;
71734;SDS011;59577;52.122;5.406;2022-08-03T05:57:22;6.80;;;1.20;;
71734;SDS011;59577;52.122;5.406;2022-08-03T05:59:49;8.52;;;1.85;;
71734;SDS011;59577;52.122;5.406;2022-08-03T06:02:23;10.38;;;1.40;;
71734;SDS011;59577;52.122;5.406;2022-08-03T06:04:50;5.13;;;1.10;;
71734;SDS011;59577;52.122;5.406;2022-08-03T06:07:16;6.07;;;1.77;;
71734;SDS011;59577;52.122;5.406;2022-08-03T06:09:43;7.25;;;1.60;;
71734;SDS011;59577;52.122;5.406;2022-08-03T06:12:30;10.57;;;1.70;;
71734;SDS011;59577;52.122;5.406;2022-08-03T06:14:56;9.65;;;1.67;;
71734;SDS011;59577;52.122;5.406;2022-08-03T06:17:23;5.87;;;1.60;;
71734;SDS011;59577;52.122;5.406;2022-08-03T06:19:51;4.60;;;1.42;;
71734;SDS011;59577;52.122;5.406;2022-08-03T06:22:18;6.85;;;1.45;;
71734;SDS011;59577;52.122;5.406;2022-08-03T06:24:46;9.30;;;1.65;;
71734;SDS011;59577;52.122;5.406;2022-08-03T06:27:20;7.43;;;1.50;;
71734;SDS011;59577;52.122;5.406;2022-08-03T06:30:02;9.17;;;2.23;;
71734;SDS011;59577;52.122;5.406;2022-08-03T06:32:30;10.27;;;1.50;;
71734;SDS011;59577;52.122;5.406;2022-08-03T06:34:56;10.13;;;1.40;;
71734;SDS011;59577;52.122;5.406;2022-08-03T06:37:23;7.80;;;1.85;;
71734;SDS011;59577;52.122;5.406;2022-08-03T06:39:49;8.63;;;1.52;;
71734;SDS011;59577;52.122;5.406;2022-08-03T06:42:16;12.93;;;1.87;;
71734;SDS011;59577;52.122;5.406;2022-08-03T06:44:45;9.77;;;1.83;;
71734;SDS011;59577;52.122;5.406;2022-08-03T06:47:12;10.02;;;2.17;;
71734;SDS011;59577;52.122;5.406;2022-08-03T06:49:38;9.65;;;2.40;;
71734;SDS011;59577;52.122;5.406;2022-08-03T06:52:35;11.40;;;1.77;;
71734;SDS011;59577;52.122;5.406;2022-08-03T06:55:04;9.50;;;1.70;;
71734;SDS011;59577;52.122;5.406;2022-08-03T06:57:31;9.70;;;2.05;;
71734;SDS011;59577;52.122;5.406;2022-08-03T06:59:58;9.43;;;2.25;;
71734;SDS011;59577;52.122;5.406;2022-08-03T07:02:37;6.55;;;1.63;;
71734;SDS011;59577;52.122;5.406;2022-08-03T07:05:05;16.45;;;2.25;;
71734;SDS011;59577;52.122;5.406;2022-08-03T07:07:32;14.70;;;1.90;;
71734;SDS011;59577;52.122;5.406;2022-08-03T07:09:59;9.95;;;1.55;;
71734;SDS011;59577;52.122;5.406;2022-08-03T07:12:27;12.88;;;1.90;;
71734;SDS011;59577;52.122;5.406;2022-08-03T07:14:55;10.75;;;1.95;;
71734;SDS011;59577;52.122;5.406;2022-08-03T07:17:31;9.27;;;1.73;;
71734;SDS011;59577;52.122;5.406;2022-08-03T07:20:00;11.07;;;1.60;;
71734;SDS011;59577;52.122;5.406;2022-08-03T07:22:29;5.43;;;1.42;;
71734;SDS011;59577;52.122;5.406;2022-08-03T07:24:55;7.07;;;1.63;;
71734;SDS011;59577;52.122;5.406;2022-08-03T07:27:22;5.93;;;1.40;;
71734;SDS011;59577;52.122;5.406;2022-08-03T07:29:58;11.70;;;1.77;;
71734;SDS011;59577;52.122;5.406;2022-08-03T07:32:25;9.40;;;1.67;;
71734;SDS011;59577;52.122;5.406;2022-08-03T07:34:53;10.68;;;1.73;;
71734;SDS011;59577;52.122;5.406;2022-08-03T07:37:26;8.15;;;1.50;;
71734;SDS011;59577;52.122;5.406;2022-08-03T07:39:52;7.70;;;1.63;;
71734;SDS011;59577;52.122;5.406;2022-08-03T07:42:19;8.57;;;1.48;;
71734;SDS011;59577;52.122;5.406;2022-08-03T07:44:45;8.43;;;1.80;;
71734;SDS011;59577;52.122;5.406;2022-08-03T07:47:12;11.20;;;1.67;;
71734;SDS011;59577;52.122;5.406;2022-08-03T07:49:48;11.10;;;2.10;;
71734;SDS011;59577;52.122;5.406;2022-08-03T07:52:14;8.23;;;1.73;;
71734;SDS011;59577;52.122;5.406;2022-08-03T07:54:59;8.00;;;1.63;;
71734;SDS011;59577;52.122;5.406;2022-08-03T07:57:26;8.40;;;1.80;;
71734;SDS011;59577;52.122;5.406;2022-08-03T07:59:52;7.65;;;1.45;;
71734;SDS011;59577;52.122;5.406;2022-08-03T08:02:27;12.70;;;2.25;;
71734;SDS011;59577;52.122;5.406;2022-08-03T08:04:54;10.57;;;1.98;;
71734;SDS011;59577;52.122;5.406;2022-08-03T08:07:20;11.73;;;1.80;;
71734;SDS011;59577;52.122;5.406;2022-08-03T08:09:47;8.53;;;1.40;;
71734;SDS011;59577;52.122;5.406;2022-08-03T08:12:13;17.45;;;2.00;;
71734;SDS011;59577;52.122;5.406;2022-08-03T08:14:41;11.88;;;2.28;;
71734;SDS011;59577;52.122;5.406;2022-08-03T08:17:11;10.50;;;1.90;;
71734;SDS011;59577;52.122;5.406;2022-08-03T08:19:38;13.40;;;2.50;;
71734;SDS011;59577;52.122;5.406;2022-08-03T08:22:16;9.10;;;2.03;;
71734;SDS011;59577;52.122;5.406;2022-08-03T08:24:48;9.10;;;2.10;;
71734;SDS011;59577;52.122;5.406;2022-08-03T08:27:17;7.68;;;2.05;;
71734;SDS011;59577;52.122;5.406;2022-08-03T08:29:43;8.82;;;2.58;;
71734;SDS011;59577;52.122;5.406;2022-08-03T08:32:20;13.25;;;3.42;;
71734;SDS011;59577;52.122;5.406;2022-08-03T08:34:46;14.57;;;2.53;;
71734;SDS011;59577;52.122;5.406;2022-08-03T08:37:13;9.38;;;2.28;;
71734;SDS011;59577;52.122;5.406;2022-08-03T08:39:40;15.43;;;2.70;;
71734;SDS011;59577;52.122;5.406;2022-08-03T08:42:06;12.85;;;3.17;;
71734;SDS011;59577;52.122;5.406;2022-08-03T08:44:33;10.20;;;2.60;;
71734;SDS011;59577;52.122;5.406;2022-08-03T08:47:00;12.50;;;2.57;;
71734;SDS011;59577;52.122;5.406;2022-08-03T08:49:28;18.60;;;2.65;;
71734;SDS011;59577;52.122;5.406;2022-08-03T08:51:55;13.55;;;2.75;;
71734;SDS011;59577;52.122;5.406;2022-08-03T08:54:26;8.00;;;2.55;;
71734;SDS011;59577;52.122;5.406;2022-08-03T08:56:54;10.55;;;2.38;;
71734;SDS011;59577;52.122;5.406;2022-08-03T08:59:23;15.83;;;3.07;;
71734;SDS011;59577;52.122;5.406;2022-08-03T09:01:50;12.30;;;2.85;;
71734;SDS011;59577;52.122;5.406;2022-08-03T09:04:16;9.82;;;2.72;;
71734;SDS011;59577;52.122;5.406;2022-08-03T09:06:43;13.05;;;3.00;;
71734;SDS011;59577;52.122;5.406;2022-08-03T09:09:29;10.63;;;3.20;;
71734;SDS011;59577;52.122;5.406;2022-08-03T09:12:17;11.47;;;2.90;;
71734;SDS011;59577;52.122;5.406;2022-08-03T09:17:50;11.90;;;2.58;;
71734;SDS011;59577;52.122;5.406;2022-08-03T09:20:19;15.88;;;3.17;;
71734;SDS011;59577;52.122;5.406;2022-08-03T09:23:03;13.73;;;3.17;;
71734;SDS011;59577;52.122;5.406;2022-08-03T09:25:50;16.37;;;3.33;;
71734;SDS011;59577;52.122;5.406;2022-08-03T09:28:25;17.20;;;2.83;;
71734;SDS011;59577;52.122;5.406;2022-08-03T09:31:27;11.45;;;2.90;;
71734;SDS011;59577;52.122;5.406;2022-08-03T09:34:02;17.42;;;2.95;;
71734;SDS011;59577;52.122;5.406;2022-08-03T09:36:34;8.68;;;2.75;;
71734;SDS011;59577;52.122;5.406;2022-08-03T09:41:47;12.35;;;2.83;;
71734;SDS011;59577;52.122;5.406;2022-08-03T09:44:35;12.23;;;2.50;;
71734;SDS011;59577;52.122;5.406;2022-08-03T09:47:03;7.70;;;2.30;;
71734;SDS011;59577;52.122;5.406;2022-08-03T09:49:31;10.38;;;2.80;;
71734;SDS011;59577;52.122;5.406;2022-08-03T09:52:10;11.67;;;2.53;;
71734;SDS011;59577;52.122;5.406;2022-08-03T09:54:59;12.10;;;2.83;;
71734;SDS011;59577;52.122;5.406;2022-08-03T09:57:27;14.85;;;2.80;;
71734;SDS011;59577;52.122;5.406;2022-08-03T10:00:10;12.75;;;2.60;;
71734;SDS011;59577;52.122;5.406;2022-08-03T10:02:42;10.43;;;2.60;;
71734;SDS011;59577;52.122;5.406;2022-08-03T10:05:10;9.63;;;2.27;;
71734;SDS011;59577;52.122;5.406;2022-08-03T10:07:45;13.45;;;2.70;;
71734;SDS011;59577;52.122;5.406;2022-08-03T10:10:13;12.65;;;2.75;;
71734;SDS011;59577;52.122;5.406;2022-08-03T10:12:56;9.48;;;2.80;;
71734;SDS011;59577;52.122;5.406;2022-08-03T10:15:25;10.32;;;2.58;;
71734;SDS011;59577;52.122;5.406;2022-08-03T10:18:12;9.97;;;2.87;;
71734;SDS011;59577;52.122;5.406;2022-08-03T10:20:46;10.60;;;2.70;;
71734;SDS011;59577;52.122;5.406;2022-08-03T10:23:18;9.98;;;3.00;;
71734;SDS011;59577;52.122;5.406;2022-08-03T10:25:45;9.35;;;2.67;;
71734;SDS011;59577;52.122;5.406;2022-08-03T10:28:15;12.60;;;3.03;;
71734;SDS011;59577;52.122;5.406;2022-08-03T10:30:47;9.87;;;2.70;;
71734;SDS011;59577;52.122;5.406;2022-08-03T10:33:17;9.15;;;2.80;;
71734;SDS011;59577;52.122;5.406;2022-08-03T10:36:04;8.10;;;2.75;;
71734;SDS011;59577;52.122;5.406;2022-08-03T10:38:35;9.10;;;2.58;;
71734;SDS011;59577;52.122;5.406;2022-08-03T10:41:05;10.60;;;2.70;;
71734;SDS011;59577;52.122;5.406;2022-08-03T10:43:41;9.83;;;2.37;;
71734;SDS011;59577;52.122;5.406;2022-08-03T10:46:14;15.88;;;2.63;;
71734;SDS011;59577;52.122;5.406;2022-08-03T10:48:43;13.00;;;2.70;;
71734;SDS011;59577;52.122;5.406;2022-08-03T10:51:12;7.70;;;2.35;;
71734;SDS011;59577;52.122;5.406;2022-08-03T10:53:39;9.25;;;2.05;;
71734;SDS011;59577;52.122;5.406;2022-08-03T10:59:19;11.23;;;2.10;;
71734;SDS011;59577;52.122;5.406;2022-08-03T11:02:04;12.13;;;2.67;;
71734;SDS011;59577;52.122;5.406;2022-08-03T11:04:35;6.00;;;1.90;;
71734;SDS011;59577;52.122;5.406;2022-08-03T11:07:17;9.65;;;2.30;;
71734;SDS011;59577;52.122;5.406;2022-08-03T11:09:51;8.40;;;1.90;;
71734;SDS011;59577;52.122;5.406;2022-08-03T11:12:20;7.03;;;1.80;;
71734;SDS011;59577;52.122;5.406;2022-08-03T11:14:58;7.90;;;1.73;;
71734;SDS011;59577;52.122;5.406;2022-08-03T11:17:26;9.43;;;1.85;;
71734;SDS011;59577;52.122;5.406;2022-08-03T11:19:52;9.13;;;1.80;;
71734;SDS011;59577;52.122;5.406;2022-08-03T11:22:23;8.47;;;1.77;;
71734;SDS011;59577;52.122;5.406;2022-08-03T11:27:20;7.82;;;1.83;;
71734;SDS011;59577;52.122;5.406;2022-08-03T11:30:08;6.45;;;1.85;;
71734;SDS011;59577;52.122;5.406;2022-08-03T11:35:15;8.20;;;1.87;;
71734;SDS011;59577;52.122;5.406;2022-08-03T11:40:46;5.75;;;1.90;;
71734;SDS011;59577;52.122;5.406;2022-08-03T11:46:06;5.18;;;2.03;;
71734;SDS011;59577;52.122;5.406;2022-08-03T11:48:55;7.37;;;1.50;;
71734;SDS011;59577;52.122;5.406;2022-08-03T11:51:35;6.07;;;1.90;;
71734;SDS011;59577;52.122;5.406;2022-08-03T11:54:03;7.57;;;1.98;;
71734;SDS011;59577;52.122;5.406;2022-08-03T11:56:47;6.15;;;1.88;;
71734;SDS011;59577;52.122;5.406;2022-08-03T11:59:15;5.78;;;1.85;;
71734;SDS011;59577;52.122;5.406;2022-08-03T12:01:47;8.47;;;2.43;;
71734;SDS011;59577;52.122;5.406;2022-08-03T12:04:14;7.25;;;1.92;;
71734;SDS011;59577;52.122;5.406;2022-08-03T12:06:56;5.93;;;1.90;;
71734;SDS011;59577;52.122;5.406;2022-08-03T12:09:23;7.03;;;2.17;;
71734;SDS011;59577;52.122;5.406;2022-08-03T12:11:50;8.80;;;2.00;;
71734;SDS011;59577;52.122;5.406;2022-08-03T12:14:25;6.37;;;2.13;;
71734;SDS011;59577;52.122;5.406;2022-08-03T12:17:13;7.38;;;1.95;;
71734;SDS011;59577;52.122;5.406;2022-08-03T12:19:43;7.45;;;1.60;;
71734;SDS011;59577;52.122;5.406;2022-08-03T12:22:10;8.05;;;1.98;;
71734;SDS011;59577;52.122;5.406;2022-08-03T12:24:40;6.50;;;2.00;;
71734;SDS011;59577;52.122;5.406;2022-08-03T12:27:21;7.13;;;1.77;;
71734;SDS011;59577;52.122;5.406;2022-08-03T12:29:50;9.90;;;2.15;;
71734;SDS011;59577;52.122;5.406;2022-08-03T12:32:24;8.52;;;2.28;;
71734;SDS011;59577;52.122;5.406;2022-08-03T12:34:51;5.85;;;2.10;;
71734;SDS011;59577;52.122;5.406;2022-08-03T12:37:19;7.53;;;1.65;;
71734;SDS011;59577;52.122;5.406;2022-08-03T12:39:52;3.50;;;1.40;;
71734;SDS011;59577;52.122;5.406;2022-08-03T12:42:35;4.28;;;1.58;;
71734;SDS011;59577;52.122;5.406;2022-08-03T12:45:17;7.25;;;1.70;;
71734;SDS011;59577;52.122;5.406;2022-08-03T12:47:48;4.72;;;1.50;;
71734;SDS011;59577;52.122;5.406;2022-08-03T12:50:22;5.47;;;1.50;;
71734;SDS011;59577;52.122;5.406;2022-08-03T12:52:52;5.30;;;1.80;;
71734;SDS011;59577;52.122;5.406;2022-08-03T12:55:19;7.75;;;1.70;;
71734;SDS011;59577;52.122;5.406;2022-08-03T12:57:47;7.53;;;2.15;;
71734;SDS011;59577;52.122;5.406;2022-08-03T13:00:15;5.90;;;1.80;;
71734;SDS011;59577;52.122;5.406;2022-08-03T13:03:02;4.55;;;2.00;;
71734;SDS011;59577;52.122;5.406;2022-08-03T13:05:51;7.50;;;1.90;;
71734;SDS011;59577;52.122;5.406;2022-08-03T13:08:21;6.03;;;1.73;;
71734;SDS011;59577;52.122;5.406;2022-08-03T13:10:49;3.60;;;2.08;;
71734;SDS011;59577;52.122;5.406;2022-08-03T13:13:36;5.85;;;1.75;;
71734;SDS011;59577;52.122;5.406;2022-08-03T13:16:03;8.30;;;1.60;;
71734;SDS011;59577;52.122;5.406;2022-08-03T13:18:29;5.57;;;1.70;;
71734;SDS011;59577;52.122;5.406;2022-08-03T13:20:56;4.57;;;1.90;;
71734;SDS011;59577;52.122;5.406;2022-08-03T13:23:22;5.70;;;1.58;;
71734;SDS011;59577;52.122;5.406;2022-08-03T13:25:49;3.88;;;1.45;;
71734;SDS011;59577;52.122;5.406;2022-08-03T13:28:21;3.25;;;1.90;;
71734;SDS011;59577;52.122;5.406;2022-08-03T13:30:48;4.93;;;1.57;;
71734;SDS011;59577;52.122;5.406;2022-08-03T13:33:14;4.55;;;1.52;;
71734;SDS011;59577;52.122;5.406;2022-08-03T13:35:41;4.15;;;1.90;;
71734;SDS011;59577;52.122;5.406;2022-08-03T13:38:07;4.43;;;1.30;;
71734;SDS011;59577;52.122;5.406;2022-08-03T13:40:34;5.97;;;1.65;;
71734;SDS011;59577;52.122;5.406;2022-08-03T13:43:07;4.87;;;1.57;;
71734;SDS011;59577;52.122;5.406;2022-08-03T13:45:34;3.97;;;1.65;;
71734;SDS011;59577;52.122;5.406;2022-08-03T13:48:01;3.30;;;1.83;;
71734;SDS011;59577;52.122;5.406;2022-08-03T13:50:27;5.40;;;1.83;;
71734;SDS011;59577;52.122;5.406;2022-08-03T13:52:55;2.25;;;1.50;;
71734;SDS011;59577;52.122;5.406;2022-08-03T13:55:23;3.30;;;1.33;;
71734;SDS011;59577;52.122;5.406;2022-08-03T13:57:50;2.75;;;1.40;;
71734;SDS011;59577;52.122;5.406;2022-08-03T14:00:37;2.78;;;1.40;;
71734;SDS011;59577;52.122;5.406;2022-08-03T14:03:04;3.40;;;1.80;;
71734;SDS011;59577;52.122;5.406;2022-08-03T14:05:39;3.88;;;1.83;;
71734;SDS011;59577;52.122;5.406;2022-08-03T14:08:07;4.53;;;1.67;;
71734;SDS011;59577;52.122;5.406;2022-08-03T14:10:35;3.83;;;1.15;;
71734;SDS011;59577;52.122;5.406;2022-08-03T14:13:03;5.68;;;2.03;;
71734;SDS011;59577;52.122;5.406;2022-08-03T14:15:30;3.47;;;1.40;;
71734;SDS011;59577;52.122;5.406;2022-08-03T14:18:04;3.88;;;1.30;;
71734;SDS011;59577;52.122;5.406;2022-08-03T14:20:41;5.03;;;1.30;;
71734;SDS011;59577;52.122;5.406;2022-08-03T14:23:19;5.50;;;1.20;;
71734;SDS011;59577;52.122;5.406;2022-08-03T14:25:46;2.50;;;1.35;;
71734;SDS011;59577;52.122;5.406;2022-08-03T14:28:18;6.03;;;1.10;;
71734;SDS011;59577;52.122;5.406;2022-08-03T14:30:49;3.38;;;1.23;;
71734;SDS011;59577;52.122;5.406;2022-08-03T14:33:19;5.00;;;1.40;;
71734;SDS011;59577;52.122;5.406;2022-08-03T14:35:46;6.28;;;1.33;;
71734;SDS011;59577;52.122;5.406;2022-08-03T14:38:14;3.28;;;1.27;;
71734;SDS011;59577;52.122;5.406;2022-08-03T14:40:41;3.33;;;1.60;;
71734;SDS011;59577;52.122;5.406;2022-08-03T14:43:15;2.33;;;1.27;;
71734;SDS011;59577;52.122;5.406;2022-08-03T14:45:50;4.43;;;1.40;;
71734;SDS011;59577;52.122;5.406;2022-08-03T14:48:19;2.42;;;1.30;;
71734;SDS011;59577;52.122;5.406;2022-08-03T14:51:09;1.48;;;1.20;;
71734;SDS011;59577;52.122;5.406;2022-08-03T14:53:41;5.45;;;1.30;;
71734;SDS011;59577;52.122;5.406;2022-08-03T14:56:08;2.80;;;1.23;;
71734;SDS011;59577;52.122;5.406;2022-08-03T14:58:36;6.73;;;1.20;;
71734;SDS011;59577;52.122;5.406;2022-08-03T15:01:03;8.15;;;1.50;;
71734;SDS011;59577;52.122;5.406;2022-08-03T15:03:50;4.28;;;1.25;;
71734;SDS011;59577;52.122;5.406;2022-08-03T15:06:16;3.42;;;1.00;;
71734;SDS011;59577;52.122;5.406;2022-08-03T15:08:43;2.83;;;1.15;;
71734;SDS011;59577;52.122;5.406;2022-08-03T15:11:29;3.10;;;1.00;;
71734;SDS011;59577;52.122;5.406;2022-08-03T15:13:55;3.17;;;0.70;;
71734;SDS011;59577;52.122;5.406;2022-08-03T15:16:22;5.75;;;0.90;;
71734;SDS011;59577;52.122;5.406;2022-08-03T15:18:55;3.80;;;0.90;;
71734;SDS011;59577;52.122;5.406;2022-08-03T15:21:21;2.78;;;1.50;;
71734;SDS011;59577;52.122;5.406;2022-08-03T15:24:08;4.70;;;0.90;;
71734;SDS011;59577;52.122;5.406;2022-08-03T15:26:34;3.20;;;0.90;;
71734;SDS011;59577;52.122;5.406;2022-08-03T15:29:06;5.18;;;1.20;;
71734;SDS011;59577;52.122;5.406;2022-08-03T15:31:33;8.30;;;1.17;;
71734;SDS011;59577;52.122;5.406;2022-08-03T15:33:59;2.63;;;0.80;;